sensor_id;sensor_type;location;lat;lon;timestamp;pressure;altitude;pressure_sealevel;temperature;humidity
49063;BME280;34876;51.464;-0.150;2023-02-11T00:01:44;103520.17;;;16.30;38.91
49063;BME280;34876;51.464;-0.150;2023-02-11T00:04:14;103524.74;;;16.31;38.94
49063;BME280;34876;51.464;-0.150;2023-02-11T00:06:43;103524.41;;;16.31;38.93
49063;BME280;34876;51.464;-0.150;2023-02-11T00:09:12;103524.74;;;16.31;38.94
49063;BME280;34876;51.464;-0.150;2023-02-11T00:11:42;103525.58;;;16.30;39.00
49063;BME280;34876;51.464;-0.150;2023-02-11T00:14:11;103525.70;;;16.30;39.05
49063;BME280;34876;51.464;-0.150;2023-02-11T00:16:40;103518.44;;;16.30;39.00
49063;BME280;34876;51.464;-0.150;2023-02-11T00:19:09;103516.54;;;16.30;39.00
49063;BME280;34876;51.464;-0.150;2023-02-11T00:21:40;103521.06;;;16.31;39.00
49063;BME280;34876;51.464;-0.150;2023-02-11T00:24:10;103523.74;;;16.31;39.03
49063;BME280;34876;51.464;-0.150;2023-02-11T00:26:39;103524.35;;;16.31;39.04
49063;BME280;34876;51.464;-0.150;2023-02-11T00:29:09;103524.46;;;16.31;39.08
49063;BME280;34876;51.464;-0.150;2023-02-11T00:31:39;103526.81;;;16.32;39.06
49063;BME280;34876;51.464;-0.150;2023-02-11T00:34:08;103527.81;;;16.32;39.08
49063;BME280;34876;51.464;-0.150;2023-02-11T00:36:37;103524.40;;;16.32;39.09
49063;BME280;34876;51.464;-0.150;2023-02-11T00:39:06;103523.29;;;16.32;39.11
49063;BME280;34876;51.464;-0.150;2023-02-11T00:41:35;103522.28;;;16.32;39.14
49063;BME280;34876;51.464;-0.150;2023-02-11T00:44:06;103522.00;;;16.33;39.15
49063;BME280;34876;51.464;-0.150;2023-02-11T00:46:35;103525.91;;;16.34;39.12
49063;BME280;34876;51.464;-0.150;2023-02-11T00:49:04;103526.19;;;16.34;39.14
49063;BME280;34876;51.464;-0.150;2023-02-11T00:51:33;103527.58;;;16.35;39.14
49063;BME280;34876;51.464;-0.150;2023-02-11T00:54:03;103529.20;;;16.34;39.19
49063;BME280;34876;51.464;-0.150;2023-02-11T00:56:33;103527.07;;;16.36;39.18
49063;BME280;34876;51.464;-0.150;2023-02-11T00:59:02;103524.51;;;16.36;39.17
49063;BME280;34876;51.464;-0.150;2023-02-11T01:03:14;103525.73;;;16.38;39.17
49063;BME280;34876;51.464;-0.150;2023-02-11T01:05:43;103524.61;;;16.37;39.19
49063;BME280;34876;51.464;-0.150;2023-02-11T01:08:12;103525.11;;;16.38;39.20
49063;BME280;34876;51.464;-0.150;2023-02-11T01:10:41;103529.02;;;16.38;39.22
49063;BME280;34876;51.464;-0.150;2023-02-11T01:13:11;103528.86;;;16.38;39.29
49063;BME280;34876;51.464;-0.150;2023-02-11T01:15:41;103527.07;;;16.37;39.28
49063;BME280;34876;51.464;-0.150;2023-02-11T01:18:09;103528.24;;;16.37;39.33
49063;BME280;34876;51.464;-0.150;2023-02-11T01:20:39;103526.46;;;16.37;39.31
49063;BME280;34876;51.464;-0.150;2023-02-11T01:23:13;103526.95;;;16.39;39.26
49063;BME280;34876;51.464;-0.150;2023-02-11T01:25:42;103530.58;;;16.39;39.35
49063;BME280;34876;51.464;-0.150;2023-02-11T01:28:16;103528.06;;;16.41;39.33
49063;BME280;34876;51.464;-0.150;2023-02-11T01:30:45;103530.58;;;16.40;39.43
49063;BME280;34876;51.464;-0.150;2023-02-11T01:33:14;103529.74;;;16.40;39.35
49063;BME280;34876;51.464;-0.150;2023-02-11T01:35:44;103528.57;;;16.41;39.39
49063;BME280;34876;51.464;-0.150;2023-02-11T01:38:16;103523.20;;;16.42;39.35
49063;BME280;34876;51.464;-0.150;2023-02-11T01:40:47;103516.72;;;16.41;39.40
49063;BME280;34876;51.464;-0.150;2023-02-11T01:43:18;103514.38;;;16.41;39.47
49063;BME280;34876;51.464;-0.150;2023-02-11T01:46:16;103510.02;;;16.41;39.45
49063;BME280;34876;51.464;-0.150;2023-02-11T01:48:50;103505.78;;;16.42;39.45
49063;BME280;34876;51.464;-0.150;2023-02-11T01:51:23;103503.59;;;16.43;39.50
49063;BME280;34876;51.464;-0.150;2023-02-11T01:53:53;103503.65;;;16.43;39.52
49063;BME280;34876;51.464;-0.150;2023-02-11T01:56:25;103508.73;;;16.44;39.53
49063;BME280;34876;51.464;-0.150;2023-02-11T01:59:00;103509.62;;;16.43;39.54
49063;BME280;34876;51.464;-0.150;2023-02-11T02:01:32;103507.39;;;16.44;39.55
49063;BME280;34876;51.464;-0.150;2023-02-11T02:04:02;103505.15;;;16.45;39.53
49063;BME280;34876;51.464;-0.150;2023-02-11T02:06:39;103506.71;;;16.46;39.54
49063;BME280;34876;51.464;-0.150;2023-02-11T02:09:16;103510.62;;;16.46;39.59
49063;BME280;34876;51.464;-0.150;2023-02-11T02:11:48;103508.16;;;16.47;39.52
49063;BME280;34876;51.464;-0.150;2023-02-11T02:14:18;103511.56;;;16.48;39.52
49063;BME280;34876;51.464;-0.150;2023-02-11T02:16:47;103511.00;;;16.49;39.56
49063;BME280;34876;51.464;-0.150;2023-02-11T02:20:10;103510.77;;;16.49;39.57
49063;BME280;34876;51.464;-0.150;2023-02-11T02:23:06;103499.38;;;16.50;39.61
49063;BME280;34876;51.464;-0.150;2023-02-11T02:27:29;103490.38;;;16.50;39.66
49063;BME280;34876;51.464;-0.150;2023-02-11T02:30:19;103487.76;;;16.50;39.60
49063;BME280;34876;51.464;-0.150;2023-02-11T02:33:04;103490.71;;;16.51;39.65
49063;BME280;34876;51.464;-0.150;2023-02-11T02:35:39;103492.27;;;16.52;39.57
49063;BME280;34876;51.464;-0.150;2023-02-11T02:38:14;103491.82;;;16.53;39.63
49063;BME280;34876;51.464;-0.150;2023-02-11T02:40:48;103492.72;;;16.53;39.63
49063;BME280;34876;51.464;-0.150;2023-02-11T02:43:20;103492.54;;;16.54;39.60
49063;BME280;34876;51.464;-0.150;2023-02-11T02:45:52;103486.85;;;16.53;39.63
49063;BME280;34876;51.464;-0.150;2023-02-11T02:48:24;103484.50;;;16.55;39.65
49063;BME280;34876;51.464;-0.150;2023-02-11T02:51:03;103483.71;;;16.55;39.65
49063;BME280;34876;51.464;-0.150;2023-02-11T02:53:43;103480.86;;;16.55;39.66
49063;BME280;34876;51.464;-0.150;2023-02-11T02:56:21;103480.02;;;16.56;39.69
49063;BME280;34876;51.464;-0.150;2023-02-11T02:59:04;103475.83;;;16.57;39.72
49063;BME280;34876;51.464;-0.150;2023-02-11T03:01:42;103478.51;;;16.57;39.68
49063;BME280;34876;51.464;-0.150;2023-02-11T03:04:21;103475.60;;;16.57;39.75
49063;BME280;34876;51.464;-0.150;2023-02-11T03:06:58;103473.64;;;16.59;39.75
49063;BME280;34876;51.464;-0.150;2023-02-11T03:09:32;103470.79;;;16.58;39.75
49063;BME280;34876;51.464;-0.150;2023-02-11T03:12:05;103467.10;;;16.59;39.77
49063;BME280;34876;51.464;-0.150;2023-02-11T03:14:35;103462.74;;;16.59;39.81
49063;BME280;34876;51.464;-0.150;2023-02-11T03:17:07;103453.25;;;16.59;39.79
49063;BME280;34876;51.464;-0.150;2023-02-11T03:19:39;103452.86;;;16.58;39.79
49063;BME280;34876;51.464;-0.150;2023-02-11T03:22:16;103452.52;;;16.59;39.79
49063;BME280;34876;51.464;-0.150;2023-02-11T03:24:47;103449.83;;;16.61;39.79
49063;BME280;34876;51.464;-0.150;2023-02-11T03:27:20;103453.90;;;16.61;39.82
49063;BME280;34876;51.464;-0.150;2023-02-11T03:30:00;103452.24;;;16.60;39.82
49063;BME280;34876;51.464;-0.150;2023-02-11T03:32:34;103456.25;;;16.61;39.92
49063;BME280;34876;51.464;-0.150;2023-02-11T03:35:08;103466.15;;;16.60;39.89
49063;BME280;34876;51.464;-0.150;2023-02-11T03:37:44;103470.45;;;16.60;39.90
49063;BME280;34876;51.464;-0.150;2023-02-11T03:40:19;103471.17;;;16.62;39.85
49063;BME280;34876;51.464;-0.150;2023-02-11T03:42:51;103470.33;;;16.62;39.84
49063;BME280;34876;51.464;-0.150;2023-02-11T03:45:23;103468.88;;;16.61;39.83
49063;BME280;34876;51.464;-0.150;2023-02-11T03:47:57;103466.31;;;16.60;39.90
49063;BME280;34876;51.464;-0.150;2023-02-11T03:50:29;103463.06;;;16.62;39.90
49063;BME280;34876;51.464;-0.150;2023-02-11T03:53:01;103458.14;;;16.63;39.82
49063;BME280;34876;51.464;-0.150;2023-02-11T03:55:34;103458.64;;;16.63;39.91
49063;BME280;34876;51.464;-0.150;2023-02-11T03:58:04;103454.62;;;16.64;39.88
49063;BME280;34876;51.464;-0.150;2023-02-11T04:00:35;103453.73;;;16.63;39.95
49063;BME280;34876;51.464;-0.150;2023-02-11T04:03:05;103452.21;;;16.64;39.98
49063;BME280;34876;51.464;-0.150;2023-02-11T04:05:34;103454.73;;;16.64;40.06
49063;BME280;34876;51.464;-0.150;2023-02-11T04:08:04;103452.54;;;16.65;40.01
49063;BME280;34876;51.464;-0.150;2023-02-11T04:10:33;103453.28;;;16.64;39.94
49063;BME280;34876;51.464;-0.150;2023-02-11T04:13:02;103457.97;;;16.63;39.94
49063;BME280;34876;51.464;-0.150;2023-02-11T04:15:31;103458.36;;;16.64;39.95
49063;BME280;34876;51.464;-0.150;2023-02-11T04:18:00;103460.26;;;16.64;39.95
49063;BME280;34876;51.464;-0.150;2023-02-11T04:20:29;103461.88;;;16.64;39.99
49063;BME280;34876;51.464;-0.150;2023-02-11T04:22:58;103463.33;;;16.65;39.95
49063;BME280;34876;51.464;-0.150;2023-02-11T04:25:27;103467.58;;;16.65;40.03
49063;BME280;34876;51.464;-0.150;2023-02-11T04:27:56;103468.47;;;16.64;40.06
49063;BME280;34876;51.464;-0.150;2023-02-11T04:30:26;103468.08;;;16.65;40.01
49063;BME280;34876;51.464;-0.150;2023-02-11T04:32:57;103468.23;;;16.67;39.99
49063;BME280;34876;51.464;-0.150;2023-02-11T04:35:26;103469.97;;;16.66;39.98
49063;BME280;34876;51.464;-0.150;2023-02-11T04:37:55;103472.76;;;16.67;39.94
49063;BME280;34876;51.464;-0.150;2023-02-11T04:40:24;103472.31;;;16.68;39.93
49063;BME280;34876;51.464;-0.150;2023-02-11T04:42:53;103469.91;;;16.66;39.98
49063;BME280;34876;51.464;-0.150;2023-02-11T04:45:22;103477.51;;;16.67;39.95
49063;BME280;34876;51.464;-0.150;2023-02-11T04:47:51;103479.96;;;16.68;39.96
49063;BME280;34876;51.464;-0.150;2023-02-11T04:50:21;103478.90;;;16.68;39.96
49063;BME280;34876;51.464;-0.150;2023-02-11T04:52:49;103481.64;;;16.68;39.95
49063;BME280;34876;51.464;-0.150;2023-02-11T04:55:18;103481.92;;;16.68;40.01
49063;BME280;34876;51.464;-0.150;2023-02-11T04:57:47;103486.93;;;16.71;40.20
49063;BME280;34876;51.464;-0.150;2023-02-11T05:00:16;103490.45;;;16.72;40.10
49063;BME280;34876;51.464;-0.150;2023-02-11T05:02:46;103494.58;;;16.72;40.11
49063;BME280;34876;51.464;-0.150;2023-02-11T05:05:15;103501.34;;;16.73;40.08
49063;BME280;34876;51.464;-0.150;2023-02-11T05:07:44;103502.18;;;16.73;40.16
49063;BME280;34876;51.464;-0.150;2023-02-11T05:10:14;103503.01;;;16.74;40.16
49063;BME280;34876;51.464;-0.150;2023-02-11T05:12:43;103501.78;;;16.75;40.21
49063;BME280;34876;51.464;-0.150;2023-02-11T05:15:12;103499.99;;;16.75;39.96
49063;BME280;34876;51.464;-0.150;2023-02-11T05:17:41;103500.82;;;16.75;40.00
49063;BME280;34876;51.464;-0.150;2023-02-11T05:20:11;103496.58;;;16.74;39.98
49063;BME280;34876;51.464;-0.150;2023-02-11T05:22:40;103498.08;;;16.76;39.94
49063;BME280;34876;51.464;-0.150;2023-02-11T05:25:10;103499.25;;;16.76;39.95
49063;BME280;34876;51.464;-0.150;2023-02-11T05:27:39;103504.73;;;16.76;39.97
49063;BME280;34876;51.464;-0.150;2023-02-11T05:30:10;103503.33;;;16.76;40.08
49063;BME280;34876;51.464;-0.150;2023-02-11T05:32:39;103506.46;;;16.77;39.96
49063;BME280;34876;51.464;-0.150;2023-02-11T05:35:09;103510.09;;;16.77;39.98
49063;BME280;34876;51.464;-0.150;2023-02-11T05:37:38;103506.85;;;16.77;40.21
49063;BME280;34876;51.464;-0.150;2023-02-11T05:40:07;103507.85;;;16.77;40.09
49063;BME280;34876;51.464;-0.150;2023-02-11T05:42:37;103507.85;;;16.78;40.10
49063;BME280;34876;51.464;-0.150;2023-02-11T05:45:07;103502.42;;;16.79;40.10
49063;BME280;34876;51.464;-0.150;2023-02-11T05:47:37;103498.01;;;16.79;40.14
49063;BME280;34876;51.464;-0.150;2023-02-11T05:50:07;103498.62;;;16.80;40.14
49063;BME280;34876;51.464;-0.150;2023-02-11T05:52:37;103496.49;;;16.80;40.10
49063;BME280;34876;51.464;-0.150;2023-02-11T05:55:05;103501.02;;;16.80;40.06
49063;BME280;34876;51.464;-0.150;2023-02-11T05:57:35;103503.77;;;16.79;40.00
49063;BME280;34876;51.464;-0.150;2023-02-11T06:00:05;103503.53;;;16.80;40.07
49063;BME280;34876;51.464;-0.150;2023-02-11T06:02:35;103500.18;;;16.81;40.09
49063;BME280;34876;51.464;-0.150;2023-02-11T06:05:06;103492.57;;;16.82;40.04
49063;BME280;34876;51.464;-0.150;2023-02-11T06:07:35;103490.11;;;16.82;40.04
49063;BME280;34876;51.464;-0.150;2023-02-11T06:10:06;103483.80;;;16.81;40.14
49063;BME280;34876;51.464;-0.150;2023-02-11T06:12:37;103483.13;;;16.82;40.38
49063;BME280;34876;51.464;-0.150;2023-02-11T06:15:07;103480.39;;;16.82;40.08
49063;BME280;34876;51.464;-0.150;2023-02-11T06:17:40;103484.29;;;16.83;40.23
49063;BME280;34876;51.464;-0.150;2023-02-11T06:20:10;103488.32;;;16.82;40.12
49063;BME280;34876;51.464;-0.150;2023-02-11T06:22:39;103492.78;;;16.85;40.22
49063;BME280;34876;51.464;-0.150;2023-02-11T06:25:09;103496.19;;;16.85;40.14
49063;BME280;34876;51.464;-0.150;2023-02-11T06:27:39;103494.35;;;16.84;40.10
49063;BME280;34876;51.464;-0.150;2023-02-11T06:30:09;103499.15;;;16.85;40.14
49063;BME280;34876;51.464;-0.150;2023-02-11T06:32:39;103501.39;;;16.85;40.09
49063;BME280;34876;51.464;-0.150;2023-02-11T06:35:08;103500.42;;;16.87;40.06
49063;BME280;34876;51.464;-0.150;2023-02-11T06:37:37;103493.83;;;16.86;40.12
49063;BME280;34876;51.464;-0.150;2023-02-11T06:40:07;103492.49;;;16.87;40.10
49063;BME280;34876;51.464;-0.150;2023-02-11T06:42:37;103498.69;;;16.87;40.03
49063;BME280;34876;51.464;-0.150;2023-02-11T06:45:08;103500.98;;;16.87;40.19
49063;BME280;34876;51.464;-0.150;2023-02-11T06:47:37;103507.97;;;16.87;40.12
49063;BME280;34876;51.464;-0.150;2023-02-11T06:50:07;103514.11;;;16.88;40.15
49063;BME280;34876;51.464;-0.150;2023-02-11T06:52:37;103511.08;;;16.90;40.04
49063;BME280;34876;51.464;-0.150;2023-02-11T06:55:06;103509.80;;;16.89;40.05
49063;BME280;34876;51.464;-0.150;2023-02-11T06:57:35;103508.79;;;16.89;40.11
49063;BME280;34876;51.464;-0.150;2023-02-11T07:00:07;103516.67;;;16.90;40.08
49063;BME280;34876;51.464;-0.150;2023-02-11T07:02:36;103525.06;;;16.89;40.14
49063;BME280;34876;51.464;-0.150;2023-02-11T07:05:07;103526.85;;;16.89;40.20
49063;BME280;34876;51.464;-0.150;2023-02-11T07:07:36;103527.07;;;16.90;40.19
49063;BME280;34876;51.464;-0.150;2023-02-11T07:10:06;103530.03;;;16.91;40.06
49063;BME280;34876;51.464;-0.150;2023-02-11T07:12:36;103527.01;;;16.91;40.10
49063;BME280;34876;51.464;-0.150;2023-02-11T07:15:07;103530.53;;;16.91;40.13
49063;BME280;34876;51.464;-0.150;2023-02-11T07:17:36;103539.69;;;16.91;40.08
49063;BME280;34876;51.464;-0.150;2023-02-11T07:20:06;103548.74;;;16.92;40.01
49063;BME280;34876;51.464;-0.150;2023-02-11T07:22:36;103556.73;;;16.94;40.05
49063;BME280;34876;51.464;-0.150;2023-02-11T07:25:06;103557.62;;;16.94;40.10
49063;BME280;34876;51.464;-0.150;2023-02-11T07:27:36;103557.24;;;16.92;40.14
49063;BME280;34876;51.464;-0.150;2023-02-11T07:30:06;103558.18;;;16.94;40.04
49063;BME280;34876;51.464;-0.150;2023-02-11T07:32:36;103563.83;;;16.93;40.13
49063;BME280;34876;51.464;-0.150;2023-02-11T07:35:06;103563.84;;;16.92;40.11
49063;BME280;34876;51.464;-0.150;2023-02-11T07:37:41;103569.87;;;16.94;40.12
49063;BME280;34876;51.464;-0.150;2023-02-11T07:40:11;103573.95;;;16.93;40.14
49063;BME280;34876;51.464;-0.150;2023-02-11T07:42:39;103574.28;;;16.93;40.21
49063;BME280;34876;51.464;-0.150;2023-02-11T07:45:09;103571.32;;;16.93;40.15
49063;BME280;34876;51.464;-0.150;2023-02-11T07:47:38;103568.35;;;16.95;40.10
49063;BME280;34876;51.464;-0.150;2023-02-11T07:50:07;103569.19;;;16.94;40.16
49063;BME280;34876;51.464;-0.150;2023-02-11T07:52:37;103566.73;;;16.95;40.16
49063;BME280;34876;51.464;-0.150;2023-02-11T07:55:07;103565.67;;;16.95;40.16
49063;BME280;34876;51.464;-0.150;2023-02-11T07:57:37;103560.36;;;16.94;40.16
49063;BME280;34876;51.464;-0.150;2023-02-11T08:00:07;103558.96;;;16.95;40.11
49063;BME280;34876;51.464;-0.150;2023-02-11T08:02:36;103559.46;;;16.95;40.12
49063;BME280;34876;51.464;-0.150;2023-02-11T08:05:06;103559.07;;;16.95;40.10
49063;BME280;34876;51.464;-0.150;2023-02-11T08:07:36;103557.73;;;16.95;40.12
49063;BME280;34876;51.464;-0.150;2023-02-11T08:10:06;103558.62;;;16.96;40.09
49063;BME280;34876;51.464;-0.150;2023-02-11T08:12:36;103562.48;;;16.96;40.14
49063;BME280;34876;51.464;-0.150;2023-02-11T08:15:06;103565.27;;;16.95;40.08
49063;BME280;34876;51.464;-0.150;2023-02-11T08:17:35;103569.64;;;16.95;40.14
49063;BME280;34876;51.464;-0.150;2023-02-11T08:20:06;103571.75;;;16.96;40.11
49063;BME280;34876;51.464;-0.150;2023-02-11T08:22:35;103569.40;;;16.97;40.09
49063;BME280;34876;51.464;-0.150;2023-02-11T08:25:05;103567.11;;;16.97;40.09
49063;BME280;34876;51.464;-0.150;2023-02-11T08:27:35;103564.76;;;16.97;40.11
49063;BME280;34876;51.464;-0.150;2023-02-11T08:30:05;103564.20;;;16.98;40.11
49063;BME280;34876;51.464;-0.150;2023-02-11T08:32:35;103564.03;;;16.98;40.12
49063;BME280;34876;51.464;-0.150;2023-02-11T08:35:05;103570.40;;;16.99;40.10
49063;BME280;34876;51.464;-0.150;2023-02-11T08:37:34;103572.30;;;16.98;40.07
49063;BME280;34876;51.464;-0.150;2023-02-11T08:40:04;103575.98;;;17.00;40.00
49063;BME280;34876;51.464;-0.150;2023-02-11T08:42:34;103578.72;;;17.02;40.09
49063;BME280;34876;51.464;-0.150;2023-02-11T08:45:04;103578.95;;;17.00;40.07
49063;BME280;34876;51.464;-0.150;2023-02-11T08:47:33;103577.71;;;17.01;39.99
49063;BME280;34876;51.464;-0.150;2023-02-11T08:50:04;103576.15;;;17.01;40.02
49063;BME280;34876;51.464;-0.150;2023-02-11T08:52:35;103574.62;;;17.04;39.95
49063;BME280;34876;51.464;-0.150;2023-02-11T08:55:06;103576.14;;;17.03;39.95
49063;BME280;34876;51.464;-0.150;2023-02-11T08:57:35;103577.31;;;17.02;40.12
49063;BME280;34876;51.464;-0.150;2023-02-11T09:00:06;103575.63;;;17.04;39.94
49063;BME280;34876;51.464;-0.150;2023-02-11T09:02:35;103573.22;;;17.04;39.97
49063;BME280;34876;51.464;-0.150;2023-02-11T09:05:06;103573.95;;;17.05;40.01
49063;BME280;34876;51.464;-0.150;2023-02-11T09:07:35;103579.64;;;17.06;40.00
49063;BME280;34876;51.464;-0.150;2023-02-11T09:10:04;103578.70;;;17.05;40.01
49063;BME280;34876;51.464;-0.150;2023-02-11T09:12:34;103577.46;;;17.07;40.03
49063;BME280;34876;51.464;-0.150;2023-02-11T09:15:03;103572.43;;;17.06;40.21
49063;BME280;34876;51.464;-0.150;2023-02-11T09:17:33;103571.92;;;17.07;40.04
49063;BME280;34876;51.464;-0.150;2023-02-11T09:20:03;103566.49;;;17.09;40.06
49063;BME280;34876;51.464;-0.150;2023-02-11T09:22:33;103569.45;;;17.09;40.19
49063;BME280;34876;51.464;-0.150;2023-02-11T09:25:02;103575.71;;;17.10;39.94
49063;BME280;34876;51.464;-0.150;2023-02-11T09:27:32;103579.56;;;17.10;39.89
49063;BME280;34876;51.464;-0.150;2023-02-11T09:30:01;103584.04;;;17.10;40.10
49063;BME280;34876;51.464;-0.150;2023-02-11T09:32:31;103586.04;;;17.11;39.92
49063;BME280;34876;51.464;-0.150;2023-02-11T09:35:01;103587.50;;;17.11;39.88
49063;BME280;34876;51.464;-0.150;2023-02-11T09:37:31;103585.43;;;17.12;40.18
49063;BME280;34876;51.464;-0.150;2023-02-11T09:40:01;103586.15;;;17.13;39.85
49063;BME280;34876;51.464;-0.150;2023-02-11T09:42:39;103586.93;;;17.12;39.91
49063;BME280;34876;51.464;-0.150;2023-02-11T09:45:16;103591.29;;;17.13;39.88
49063;BME280;34876;51.464;-0.150;2023-02-11T09:47:48;103585.57;;;17.16;39.86
49063;BME280;34876;51.464;-0.150;2023-02-11T09:50:23;103586.87;;;17.14;40.00
49063;BME280;34876;51.464;-0.150;2023-02-11T09:52:57;103587.88;;;17.14;39.92
49063;BME280;34876;51.464;-0.150;2023-02-11T09:55:29;103589.82;;;17.15;39.82
49063;BME280;34876;51.464;-0.150;2023-02-11T09:58:01;103590.60;;;17.16;39.80
49063;BME280;34876;51.464;-0.150;2023-02-11T10:00:36;103593.63;;;17.16;39.82
49063;BME280;34876;51.464;-0.150;2023-02-11T10:03:19;103590.66;;;17.16;39.85
49063;BME280;34876;51.464;-0.150;2023-02-11T10:06:06;103595.42;;;17.15;39.86
49063;BME280;34876;51.464;-0.150;2023-02-11T10:08:45;103590.44;;;17.15;39.91
49063;BME280;34876;51.464;-0.150;2023-02-11T10:11:22;103591.23;;;17.14;39.98
49063;BME280;34876;51.464;-0.150;2023-02-11T10:14:00;103592.66;;;17.18;39.88
49063;BME280;34876;51.464;-0.150;2023-02-11T10:16:46;103594.79;;;17.18;39.82
49063;BME280;34876;51.464;-0.150;2023-02-11T10:19:32;103594.05;;;17.21;39.83
49063;BME280;34876;51.464;-0.150;2023-02-11T10:22:08;103594.21;;;17.21;39.79
49063;BME280;34876;51.464;-0.150;2023-02-11T10:24:49;103596.89;;;17.22;39.75
49063;BME280;34876;51.464;-0.150;2023-02-11T10:27:23;103590.00;;;17.25;39.74
49063;BME280;34876;51.464;-0.150;2023-02-11T10:29:59;103596.66;;;17.24;39.78
49063;BME280;34876;51.464;-0.150;2023-02-11T10:32:37;103601.64;;;17.23;39.89
49063;BME280;34876;51.464;-0.150;2023-02-11T10:35:13;103605.00;;;17.23;39.77
49063;BME280;34876;51.464;-0.150;2023-02-11T10:37:44;103604.55;;;17.23;40.00
49063;BME280;34876;51.464;-0.150;2023-02-11T10:40:17;103609.34;;;17.26;39.73
49063;BME280;34876;51.464;-0.150;2023-02-11T10:42:49;103610.29;;;17.26;39.77
49063;BME280;34876;51.464;-0.150;2023-02-11T10:45:25;103611.79;;;17.27;39.70
49063;BME280;34876;51.464;-0.150;2023-02-11T10:47:56;103610.52;;;17.25;39.71
49063;BME280;34876;51.464;-0.150;2023-02-11T10:50:29;103615.87;;;17.28;39.70
49063;BME280;34876;51.464;-0.150;2023-02-11T10:53:11;103618.83;;;17.29;39.84
49063;BME280;34876;51.464;-0.150;2023-02-11T10:55:50;103619.16;;;17.30;39.71
49063;BME280;34876;51.464;-0.150;2023-02-11T10:58:24;103616.13;;;17.32;39.64
49063;BME280;34876;51.464;-0.150;2023-02-11T11:00:56;103618.05;;;17.17;40.00
49063;BME280;34876;51.464;-0.150;2023-02-11T11:03:28;103619.78;;;17.29;39.72
49063;BME280;34876;51.464;-0.150;2023-02-11T11:06:01;103617.87;;;17.30;39.77
49063;BME280;34876;51.464;-0.150;2023-02-11T11:08:40;103617.14;;;17.31;39.69
49063;BME280;34876;51.464;-0.150;2023-02-11T11:11:11;103616.19;;;17.31;39.74
49063;BME280;34876;51.464;-0.150;2023-02-11T11:13:41;103617.75;;;17.31;39.88
49063;BME280;34876;51.464;-0.150;2023-02-11T11:16:24;103622.13;;;17.29;39.80
49063;BME280;34876;51.464;-0.150;2023-02-11T11:19:13;103626.36;;;17.32;39.79
49063;BME280;34876;51.464;-0.150;2023-02-11T11:21:45;103623.29;;;17.32;39.98
49063;BME280;34876;51.464;-0.150;2023-02-11T11:24:19;103621.89;;;17.31;39.79
49063;BME280;34876;51.464;-0.150;2023-02-11T11:26:52;103617.02;;;17.33;39.67
49063;BME280;34876;51.464;-0.150;2023-02-11T11:29:23;103618.97;;;17.34;39.77
49063;BME280;34876;51.464;-0.150;2023-02-11T11:31:56;103616.00;;;17.35;39.67
49063;BME280;34876;51.464;-0.150;2023-02-11T11:34:28;103612.97;;;17.36;39.72
49063;BME280;34876;51.464;-0.150;2023-02-11T11:37:08;103611.64;;;17.35;39.73
49063;BME280;34876;51.464;-0.150;2023-02-11T11:39:39;103609.95;;;17.35;39.80
49063;BME280;34876;51.464;-0.150;2023-02-11T11:42:24;103604.28;;;17.40;39.54
49063;BME280;34876;51.464;-0.150;2023-02-11T11:44:57;103604.31;;;17.35;39.75
49063;BME280;34876;51.464;-0.150;2023-02-11T11:47:32;103600.77;;;17.36;39.77
49063;BME280;34876;51.464;-0.150;2023-02-11T11:50:18;103607.08;;;17.30;39.79
49063;BME280;34876;51.464;-0.150;2023-02-11T11:52:56;103601.99;;;17.38;39.55
49063;BME280;34876;51.464;-0.150;2023-02-11T11:55:32;103599.44;;;17.36;39.60
49063;BME280;34876;51.464;-0.150;2023-02-11T11:58:03;103599.12;;;17.41;39.52
49063;BME280;34876;51.464;-0.150;2023-02-11T12:00:36;103598.69;;;17.39;39.55
49063;BME280;34876;51.464;-0.150;2023-02-11T12:03:23;103597.74;;;17.39;39.58
49063;BME280;34876;51.464;-0.150;2023-02-11T12:06:11;103598.01;;;17.41;39.54
49063;BME280;34876;51.464;-0.150;2023-02-11T12:08:52;103597.61;;;17.42;39.57
49063;BME280;34876;51.464;-0.150;2023-02-11T12:11:30;103596.27;;;17.41;39.52
49063;BME280;34876;51.464;-0.150;2023-02-11T12:14:12;103598.53;;;17.29;39.83
49063;BME280;34876;51.464;-0.150;2023-02-11T12:16:53;103591.03;;;17.38;39.71
49063;BME280;34876;51.464;-0.150;2023-02-11T12:19:38;103596.61;;;17.40;39.61
49063;BME280;34876;51.464;-0.150;2023-02-11T12:22:21;103592.70;;;17.39;39.69
49063;BME280;34876;51.464;-0.150;2023-02-11T12:25:02;103591.09;;;17.38;39.77
49063;BME280;34876;51.464;-0.150;2023-02-11T12:27:42;103586.60;;;17.41;39.58
49063;BME280;34876;51.464;-0.150;2023-02-11T12:30:36;103587.30;;;17.44;39.47
49063;BME280;34876;51.464;-0.150;2023-02-11T12:33:15;103587.19;;;17.44;39.55
49063;BME280;34876;51.464;-0.150;2023-02-11T12:35:54;103586.97;;;17.44;39.49
49063;BME280;34876;51.464;-0.150;2023-02-11T12:38:37;103586.29;;;17.44;39.51
49063;BME280;34876;51.464;-0.150;2023-02-11T12:41:20;103584.29;;;17.42;39.51
49063;BME280;34876;51.464;-0.150;2023-02-11T12:43:52;103588.41;;;17.45;39.47
49063;BME280;34876;51.464;-0.150;2023-02-11T12:46:33;103596.22;;;17.22;41.28
49063;BME280;34876;51.464;-0.150;2023-02-11T12:49:31;103591.05;;;17.35;39.75
49063;BME280;34876;51.464;-0.150;2023-02-11T12:52:13;103588.66;;;17.41;39.55
49063;BME280;34876;51.464;-0.150;2023-02-11T12:54:51;103584.30;;;17.41;39.58
49063;BME280;34876;51.464;-0.150;2023-02-11T12:57:25;103579.77;;;17.40;39.65
49063;BME280;34876;51.464;-0.150;2023-02-11T12:59:59;103579.80;;;17.36;39.74
49063;BME280;34876;51.464;-0.150;2023-02-11T13:02:35;103587.21;;;17.41;39.62
49063;BME280;34876;51.464;-0.150;2023-02-11T13:05:18;103587.87;;;17.42;39.61
49063;BME280;34876;51.464;-0.150;2023-02-11T13:07:51;103582.16;;;17.43;39.54
49063;BME280;34876;51.464;-0.150;2023-02-11T13:10:26;103583.14;;;17.38;39.67
49063;BME280;34876;51.464;-0.150;2023-02-11T13:12:59;103584.87;;;17.39;39.62